sensor_id;sensor_type;location;lat;lon;timestamp;pressure;altitude;pressure_sealevel;temperature;humidity
22651;BME280;11492;42.646;23.400;2023-10-19T00:00:46;95136.22;;;8.22;82.16
22651;BME280;11492;42.646;23.400;2023-10-19T00:03:20;95121.63;;;8.39;82.70
22651;BME280;11492;42.646;23.400;2023-10-19T00:05:56;95139.28;;;8.49;81.58
22651;BME280;11492;42.646;23.400;2023-10-19T00:08:24;95137.34;;;8.51;80.98
22651;BME280;11492;42.646;23.400;2023-10-19T00:10:56;95125.31;;;8.44;81.21
22651;BME280;11492;42.646;23.400;2023-10-19T00:13:36;95134.13;;;8.49;80.22
22651;BME280;11492;42.646;23.400;2023-10-19T00:16:06;95099.94;;;8.33;80.22
22651;BME280;11492;42.646;23.400;2023-10-19T00:18:40;95107.63;;;8.41;80.76
22651;BME280;11492;42.646;23.400;2023-10-19T00:21:09;95114.69;;;8.47;79.92
22651;BME280;11492;42.646;23.400;2023-10-19T00:23:49;95110.00;;;8.43;80.08
22651;BME280;11492;42.646;23.400;2023-10-19T00:26:24;95113.56;;;8.49;80.00
22651;BME280;11492;42.646;23.400;2023-10-19T00:28:58;95111.00;;;8.49;80.22
22651;BME280;11492;42.646;23.400;2023-10-19T00:31:49;95113.25;;;8.45;80.20
22651;BME280;11492;42.646;23.400;2023-10-19T00:34:19;95102.94;;;8.45;80.59
22651;BME280;11492;42.646;23.400;2023-10-19T00:36:49;95106.50;;;8.44;80.38
22651;BME280;11492;42.646;23.400;2023-10-19T00:39:19;95103.41;;;8.48;80.49
22651;BME280;11492;42.646;23.400;2023-10-19T00:41:51;95094.47;;;8.28;80.22
22651;BME280;11492;42.646;23.400;2023-10-19T00:44:21;95105.53;;;8.45;80.64
22651;BME280;11492;42.646;23.400;2023-10-19T00:47:10;95100.03;;;8.47;80.65
22651;BME280;11492;42.646;23.400;2023-10-19T00:49:41;95094.09;;;8.47;80.72
22651;BME280;11492;42.646;23.400;2023-10-19T00:52:14;95097.94;;;8.43;81.23
22651;BME280;11492;42.646;23.400;2023-10-19T00:54:51;95102.47;;;8.41;80.83
22651;BME280;11492;42.646;23.400;2023-10-19T00:57:25;95106.50;;;8.36;80.86
22651;BME280;11492;42.646;23.400;2023-10-19T01:00:03;95081.44;;;8.22;80.50
22651;BME280;11492;42.646;23.400;2023-10-19T01:02:50;95102.31;;;8.27;80.71
22651;BME280;11492;42.646;23.400;2023-10-19T01:05:20;95108.13;;;8.21;80.91
22651;BME280;11492;42.646;23.400;2023-10-19T01:07:48;95105.38;;;8.22;81.42
22651;BME280;11492;42.646;23.400;2023-10-19T01:10:31;95096.72;;;8.23;81.41
22651;BME280;11492;42.646;23.400;2023-10-19T01:13:03;95099.13;;;8.25;80.29
22651;BME280;11492;42.646;23.400;2023-10-19T01:15:34;95083.06;;;8.15;80.71
22651;BME280;11492;42.646;23.400;2023-10-19T01:18:03;95100.09;;;8.16;80.61
22651;BME280;11492;42.646;23.400;2023-10-19T01:20:35;95094.91;;;8.00;80.72
22651;BME280;11492;42.646;23.400;2023-10-19T01:23:22;95093.50;;;7.98;80.83
22651;BME280;11492;42.646;23.400;2023-10-19T01:25:55;95116.16;;;8.10;81.31
22651;BME280;11492;42.646;23.400;2023-10-19T01:28:30;95108.75;;;7.99;81.40
22651;BME280;11492;42.646;23.400;2023-10-19T01:31:21;95101.53;;;8.03;81.32
22651;BME280;11492;42.646;23.400;2023-10-19T01:34:02;95107.44;;;7.95;81.49
22651;BME280;11492;42.646;23.400;2023-10-19T01:36:31;95100.09;;;7.93;81.63
22651;BME280;11492;42.646;23.400;2023-10-19T01:39:28;95104.56;;;7.91;82.10
22651;BME280;11492;42.646;23.400;2023-10-19T01:41:56;95107.31;;;7.89;81.81
22651;BME280;11492;42.646;23.400;2023-10-19T01:44:26;95092.66;;;7.74;82.14
22651;BME280;11492;42.646;23.400;2023-10-19T01:46:53;95097.97;;;7.72;81.90
22651;BME280;11492;42.646;23.400;2023-10-19T01:49:23;95090.28;;;7.72;81.70
22651;BME280;11492;42.646;23.400;2023-10-19T01:51:56;95121.25;;;7.79;82.07
22651;BME280;11492;42.646;23.400;2023-10-19T01:54:24;95110.16;;;7.63;82.40
22651;BME280;11492;42.646;23.400;2023-10-19T01:56:58;95105.84;;;7.71;82.58
22651;BME280;11492;42.646;23.400;2023-10-19T01:59:27;95110.50;;;7.75;81.75
22651;BME280;11492;42.646;23.400;2023-10-19T02:01:54;95107.47;;;7.72;82.07
22651;BME280;11492;42.646;23.400;2023-10-19T02:04:24;95100.69;;;7.63;81.79
22651;BME280;11492;42.646;23.400;2023-10-19T02:06:58;95107.44;;;7.64;82.56
22651;BME280;11492;42.646;23.400;2023-10-19T02:09:30;95103.25;;;7.63;81.94
22651;BME280;11492;42.646;23.400;2023-10-19T02:12:05;95097.97;;;7.65;81.47
22651;BME280;11492;42.646;23.400;2023-10-19T02:14:38;95105.53;;;7.66;82.17
22651;BME280;11492;42.646;23.400;2023-10-19T02:17:07;95109.38;;;7.62;81.81
22651;BME280;11492;42.646;23.400;2023-10-19T02:19:39;95094.44;;;7.58;81.54
22651;BME280;11492;42.646;23.400;2023-10-19T02:22:13;95111.28;;;7.60;81.45
22651;BME280;11492;42.646;23.400;2023-10-19T02:24:48;95102.09;;;7.50;81.65
22651;BME280;11492;42.646;23.400;2023-10-19T02:27:20;95121.72;;;7.51;82.36
22651;BME280;11492;42.646;23.400;2023-10-19T02:29:50;95117.34;;;7.44;82.42
22651;BME280;11492;42.646;23.400;2023-10-19T02:32:18;95118.97;;;7.52;82.56
22651;BME280;11492;42.646;23.400;2023-10-19T02:34:49;95110.91;;;7.32;82.41
22651;BME280;11492;42.646;23.400;2023-10-19T02:37:20;95114.47;;;7.46;82.90
22651;BME280;11492;42.646;23.400;2023-10-19T02:39:54;95102.41;;;7.39;82.43
22651;BME280;11492;42.646;23.400;2023-10-19T02:42:27;95103.75;;;7.51;82.09
22651;BME280;11492;42.646;23.400;2023-10-19T02:44:55;95100.69;;;7.47;81.96
22651;BME280;11492;42.646;23.400;2023-10-19T02:47:26;95103.88;;;7.49;81.80
22651;BME280;11492;42.646;23.400;2023-10-19T02:49:59;95113.03;;;7.44;82.50
22651;BME280;11492;42.646;23.400;2023-10-19T02:52:30;95094.72;;;7.31;81.76
22651;BME280;11492;42.646;23.400;2023-10-19T02:55:02;95113.16;;;7.35;82.24
22651;BME280;11492;42.646;23.400;2023-10-19T02:57:32;95113.16;;;7.27;82.80
22651;BME280;11492;42.646;23.400;2023-10-19T02:59:58;95116.97;;;7.23;83.15
22651;BME280;11492;42.646;23.400;2023-10-19T03:02:26;95099.81;;;7.16;83.37
22651;BME280;11492;42.646;23.400;2023-10-19T03:05:00;95093.53;;;7.18;83.21
22651;BME280;11492;42.646;23.400;2023-10-19T03:07:28;95111.22;;;7.29;83.56
22651;BME280;11492;42.646;23.400;2023-10-19T03:09:59;95106.75;;;7.31;83.10
22651;BME280;11492;42.646;23.400;2023-10-19T03:12:30;95102.88;;;7.27;83.21
22651;BME280;11492;42.646;23.400;2023-10-19T03:15:00;95110.25;;;7.22;83.45
22651;BME280;11492;42.646;23.400;2023-10-19T03:17:30;95097.72;;;7.19;83.57
22651;BME280;11492;42.646;23.400;2023-10-19T03:20:01;95099.34;;;7.20;83.94
22651;BME280;11492;42.646;23.400;2023-10-19T03:22:34;95090.34;;;7.16;83.65
22651;BME280;11492;42.646;23.400;2023-10-19T03:25:04;95100.94;;;7.29;83.73
22651;BME280;11492;42.646;23.400;2023-10-19T03:27:49;95097.75;;;7.27;84.10
22651;BME280;11492;42.646;23.400;2023-10-19T03:30:24;95091.00;;;7.26;83.92
22651;BME280;11492;42.646;23.400;2023-10-19T03:32:53;95099.69;;;7.33;83.21
22651;BME280;11492;42.646;23.400;2023-10-19T03:35:18;95101.75;;;7.29;83.24
22651;BME280;11492;42.646;23.400;2023-10-19T03:37:46;95097.09;;;7.33;83.60
22651;BME280;11492;42.646;23.400;2023-10-19T03:40:13;95094.53;;;7.33;83.82
22651;BME280;11492;42.646;23.400;2023-10-19T03:42:48;95074.13;;;7.23;83.77
22651;BME280;11492;42.646;23.400;2023-10-19T03:45:22;95092.78;;;7.33;84.39
22651;BME280;11492;42.646;23.400;2023-10-19T03:47:51;95082.66;;;7.40;84.65
22651;BME280;11492;42.646;23.400;2023-10-19T03:50:24;95085.91;;;7.42;84.12
22651;BME280;11492;42.646;23.400;2023-10-19T03:52:51;95074.81;;;7.41;84.30
22651;BME280;11492;42.646;23.400;2023-10-19T03:55:19;95087.19;;;7.46;83.23
22651;BME280;11492;42.646;23.400;2023-10-19T03:57:51;95060.84;;;7.36;83.35
22651;BME280;11492;42.646;23.400;2023-10-19T04:00:27;95084.13;;;7.50;83.23
22651;BME280;11492;42.646;23.400;2023-10-19T04:03:00;95073.38;;;7.39;82.66
22651;BME280;11492;42.646;23.400;2023-10-19T04:05:29;95079.31;;;7.39;82.58
22651;BME280;11492;42.646;23.400;2023-10-19T04:08:05;95082.66;;;7.40;82.29
22651;BME280;11492;42.646;23.400;2023-10-19T04:10:42;95074.00;;;7.33;82.18
22651;BME280;11492;42.646;23.400;2023-10-19T04:13:15;95060.19;;;7.26;81.73
22651;BME280;11492;42.646;23.400;2023-10-19T04:15:44;95079.78;;;7.35;82.63
22651;BME280;11492;42.646;23.400;2023-10-19T04:18:12;95080.72;;;7.34;82.79
22651;BME280;11492;42.646;23.400;2023-10-19T04:20:44;95079.47;;;7.38;83.73
22651;BME280;11492;42.646;23.400;2023-10-19T04:23:22;95052.47;;;7.18;83.67
22651;BME280;11492;42.646;23.400;2023-10-19T04:25:55;95080.91;;;7.32;83.18
22651;BME280;11492;42.646;23.400;2023-10-19T04:28:32;95074.81;;;7.33;82.83
22651;BME280;11492;42.646;23.400;2023-10-19T04:31:11;95076.59;;;7.48;85.07
22651;BME280;11492;42.646;23.400;2023-10-19T04:33:41;95049.31;;;7.47;85.42
22651;BME280;11492;42.646;23.400;2023-10-19T04:36:14;95075.81;;;7.64;84.34
22651;BME280;11492;42.646;23.400;2023-10-19T04:38:41;95049.63;;;7.45;83.01
22651;BME280;11492;42.646;23.400;2023-10-19T04:41:10;95069.06;;;7.63;82.93
22651;BME280;11492;42.646;23.400;2023-10-19T04:43:37;95039.53;;;7.51;81.99
22651;BME280;11492;42.646;23.400;2023-10-19T04:46:08;95066.66;;;7.61;81.99
22651;BME280;11492;42.646;23.400;2023-10-19T04:48:37;95055.75;;;7.51;82.14
22651;BME280;11492;42.646;23.400;2023-10-19T04:51:06;95063.94;;;7.63;81.69
22651;BME280;11492;42.646;23.400;2023-10-19T04:53:32;95066.97;;;7.58;82.59
22651;BME280;11492;42.646;23.400;2023-10-19T04:56:00;95068.44;;;7.69;82.28
22651;BME280;11492;42.646;23.400;2023-10-19T04:58:27;95073.41;;;7.70;81.75
22651;BME280;11492;42.646;23.400;2023-10-19T05:00:54;95055.25;;;7.64;81.05
22651;BME280;11492;42.646;23.400;2023-10-19T05:03:20;95063.47;;;7.67;82.39
22651;BME280;11492;42.646;23.400;2023-10-19T05:05:46;95068.25;;;7.70;82.09
22651;BME280;11492;42.646;23.400;2023-10-19T05:08:13;95072.44;;;7.79;81.15
22651;BME280;11492;42.646;23.400;2023-10-19T05:10:38;95066.66;;;7.77;81.19
22651;BME280;11492;42.646;23.400;2023-10-19T05:13:06;95062.47;;;7.84;81.73
22651;BME280;11492;42.646;23.400;2023-10-19T05:15:31;95057.81;;;7.95;81.32
22651;BME280;11492;42.646;23.400;2023-10-19T05:17:59;95065.69;;;8.01;80.05
22651;BME280;11492;42.646;23.400;2023-10-19T05:20:25;95067.50;;;8.09;79.78
22651;BME280;11492;42.646;23.400;2023-10-19T05:22:51;95066.19;;;8.13;80.04
22651;BME280;11492;42.646;23.400;2023-10-19T05:25:17;95066.66;;;8.24;79.36
22651;BME280;11492;42.646;23.400;2023-10-19T05:27:43;95066.97;;;8.29;78.48
22651;BME280;11492;42.646;23.400;2023-10-19T05:30:11;95065.03;;;8.39;78.84
22651;BME280;11492;42.646;23.400;2023-10-19T05:32:37;95065.03;;;8.39;78.24
22651;BME280;11492;42.646;23.400;2023-10-19T05:35:04;95071.13;;;8.46;78.52
22651;BME280;11492;42.646;23.400;2023-10-19T05:37:31;95066.94;;;8.37;78.27
22651;BME280;11492;42.646;23.400;2023-10-19T05:39:56;95070.19;;;8.39;78.34
22651;BME280;11492;42.646;23.400;2023-10-19T05:42:24;95065.34;;;8.36;77.87
22651;BME280;11492;42.646;23.400;2023-10-19T05:44:50;95077.22;;;8.45;78.54
22651;BME280;11492;42.646;23.400;2023-10-19T05:47:17;95082.69;;;8.49;78.66
22651;BME280;11492;42.646;23.400;2023-10-19T05:49:45;95078.16;;;8.51;77.89
22651;BME280;11492;42.646;23.400;2023-10-19T05:52:11;95066.59;;;8.47;78.28
22651;BME280;11492;42.646;23.400;2023-10-19T05:54:37;95082.28;;;8.68;78.46
22651;BME280;11492;42.646;23.400;2023-10-19T05:57:08;95068.63;;;8.68;78.04
22651;BME280;11492;42.646;23.400;2023-10-19T05:59:43;95085.28;;;8.87;77.87
22651;BME280;11492;42.646;23.400;2023-10-19T06:02:10;95082.34;;;8.98;77.56
22651;BME280;11492;42.646;23.400;2023-10-19T06:04:39;95077.94;;;9.14;76.99
22651;BME280;11492;42.646;23.400;2023-10-19T06:07:07;95074.66;;;9.20;76.85
22651;BME280;11492;42.646;23.400;2023-10-19T06:09:36;95083.88;;;9.45;75.91
22651;BME280;11492;42.646;23.400;2023-10-19T06:12:08;95088.31;;;9.58;76.18
22651;BME280;11492;42.646;23.400;2023-10-19T06:14:36;95083.75;;;9.68;75.78
22651;BME280;11492;42.646;23.400;2023-10-19T06:17:02;95085.72;;;9.80;74.61
22651;BME280;11492;42.646;23.400;2023-10-19T06:19:30;95055.94;;;9.78;74.41
22651;BME280;11492;42.646;23.400;2023-10-19T06:22:01;95074.81;;;10.00;74.19
22651;BME280;11492;42.646;23.400;2023-10-19T06:24:33;95076.78;;;10.13;73.41
22651;BME280;11492;42.646;23.400;2023-10-19T06:27:01;95080.53;;;10.10;72.90
22651;BME280;11492;42.646;23.400;2023-10-19T06:29:32;95071.34;;;9.94;73.30
22651;BME280;11492;42.646;23.400;2023-10-19T06:32:01;95087.47;;;10.10;72.92
22651;BME280;11492;42.646;23.400;2023-10-19T06:34:30;95065.22;;;10.09;72.87
22651;BME280;11492;42.646;23.400;2023-10-19T06:37:00;95075.72;;;10.07;72.58
22651;BME280;11492;42.646;23.400;2023-10-19T06:39:29;95076.34;;;10.09;73.66
22651;BME280;11492;42.646;23.400;2023-10-19T06:41:56;95069.75;;;10.07;73.56
22651;BME280;11492;42.646;23.400;2023-10-19T06:44:23;95066.19;;;9.94;73.91
22651;BME280;11492;42.646;23.400;2023-10-19T06:46:50;95069.94;;;10.05;74.24
22651;BME280;11492;42.646;23.400;2023-10-19T06:49:22;95067.28;;;10.13;73.81
22651;BME280;11492;42.646;23.400;2023-10-19T06:51:54;95078.44;;;10.28;73.31
22651;BME280;11492;42.646;23.400;2023-10-19T06:54:26;95061.59;;;10.18;73.53
22651;BME280;11492;42.646;23.400;2023-10-19T06:56:54;95076.50;;;10.44;73.27
22651;BME280;11492;42.646;23.400;2023-10-19T06:59:26;95081.16;;;10.63;73.11
22651;BME280;11492;42.646;23.400;2023-10-19T07:01:54;95077.59;;;10.78;71.87
22651;BME280;11492;42.646;23.400;2023-10-19T07:04:30;95074.03;;;10.93;71.34
22651;BME280;11492;42.646;23.400;2023-10-19T07:06:56;95073.41;;;11.05;69.96
22651;BME280;11492;42.646;23.400;2023-10-19T07:09:28;95044.63;;;11.08;70.73
22651;BME280;11492;42.646;23.400;2023-10-19T07:12:04;95053.94;;;11.38;70.01
22651;BME280;11492;42.646;23.400;2023-10-19T07:14:34;95058.16;;;11.59;69.49
22651;BME280;11492;42.646;23.400;2023-10-19T07:17:06;95040.44;;;11.77;68.67
22651;BME280;11492;42.646;23.400;2023-10-19T07:19:35;95015.38;;;11.77;68.04
22651;BME280;11492;42.646;23.400;2023-10-19T07:22:06;95050.50;;;12.13;67.82
22651;BME280;11492;42.646;23.400;2023-10-19T07:24:37;95056.94;;;12.17;66.90
22651;BME280;11492;42.646;23.400;2023-10-19T07:27:09;95065.16;;;12.27;67.75
22651;BME280;11492;42.646;23.400;2023-10-19T07:29:48;95045.25;;;12.27;66.91
22651;BME280;11492;42.646;23.400;2023-10-19T07:32:38;95063.19;;;12.29;66.44
22651;BME280;11492;42.646;23.400;2023-10-19T07:35:08;95055.00;;;12.52;67.02
22651;BME280;11492;42.646;23.400;2023-10-19T07:37:43;95047.22;;;12.73;65.11
22651;BME280;11492;42.646;23.400;2023-10-19T07:40:14;95048.63;;;13.15;65.55
22651;BME280;11492;42.646;23.400;2023-10-19T07:42:46;95047.44;;;13.24;63.88
22651;BME280;11492;42.646;23.400;2023-10-19T07:45:14;95062.28;;;13.43;63.37
22651;BME280;11492;42.646;23.400;2023-10-19T07:47:42;95032.97;;;13.48;63.04
22651;BME280;11492;42.646;23.400;2023-10-19T07:50:09;95065.59;;;13.83;61.84
22651;BME280;11492;42.646;23.400;2023-10-19T07:52:42;95073.19;;;13.91;61.71
22651;BME280;11492;42.646;23.400;2023-10-19T07:55:09;95066.09;;;13.46;61.34
22651;BME280;11492;42.646;23.400;2023-10-19T07:57:35;95061.81;;;13.20;61.76
22651;BME280;11492;42.646;23.400;2023-10-19T08:00:02;95061.94;;;13.65;61.88
22651;BME280;11492;42.646;23.400;2023-10-19T08:02:29;95051.91;;;16.14;55.86
22651;BME280;11492;42.646;23.400;2023-10-19T08:04:55;95043.78;;;18.40;48.82
22651;BME280;11492;42.646;23.400;2023-10-19T08:07:22;95048.59;;;19.94;44.61
22651;BME280;11492;42.646;23.400;2023-10-19T08:09:49;95042.59;;;21.55;41.74
22651;BME280;11492;42.646;23.400;2023-10-19T08:12:15;95057.00;;;22.68;38.08
22651;BME280;11492;42.646;23.400;2023-10-19T08:14:41;95055.97;;;23.00;38.11
22651;BME280;11492;42.646;23.400;2023-10-19T08:17:07;95053.78;;;24.29;36.20
22651;BME280;11492;42.646;23.400;2023-10-19T08:19:34;95042.78;;;24.96;34.39
22651;BME280;11492;42.646;23.400;2023-10-19T08:22:01;95042.56;;;25.99;33.76
22651;BME280;11492;42.646;23.400;2023-10-19T08:24:27;95032.63;;;25.61;33.39
22651;BME280;11492;42.646;23.400;2023-10-19T08:26:56;95023.50;;;26.06;32.48
22651;BME280;11492;42.646;23.400;2023-10-19T08:29:22;95042.50;;;26.71;32.24
22651;BME280;11492;42.646;23.400;2023-10-19T08:31:49;95028.00;;;27.24;31.35
22651;BME280;11492;42.646;23.400;2023-10-19T08:34:16;95052.41;;;27.77;30.27
22651;BME280;11492;42.646;23.400;2023-10-19T08:36:44;95044.72;;;27.76;29.88
22651;BME280;11492;42.646;23.400;2023-10-19T08:39:12;95046.25;;;27.30;30.34
22651;BME280;11492;42.646;23.400;2023-10-19T08:41:41;95049.41;;;27.60;30.25
22651;BME280;11492;42.646;23.400;2023-10-19T08:44:08;95046.84;;;28.02;29.33
22651;BME280;11492;42.646;23.400;2023-10-19T08:46:42;95049.41;;;27.00;30.32
22651;BME280;11492;42.646;23.400;2023-10-19T08:49:11;95045.47;;;26.07;32.00
22651;BME280;11492;42.646;23.400;2023-10-19T08:51:40;95046.22;;;26.65;31.03
22651;BME280;11492;42.646;23.400;2023-10-19T08:54:08;95044.56;;;26.31;31.11
22651;BME280;11492;42.646;23.400;2023-10-19T08:56:36;95032.63;;;25.61;31.62
22651;BME280;11492;42.646;23.400;2023-10-19T08:59:02;95049.81;;;24.31;33.62
22651;BME280;11492;42.646;23.400;2023-10-19T09:01:28;95054.69;;;23.43;35.49
22651;BME280;11492;42.646;23.400;2023-10-19T09:04:00;95055.56;;;22.82;36.51
22651;BME280;11492;42.646;23.400;2023-10-19T09:06:26;95051.28;;;23.07;36.47
22651;BME280;11492;42.646;23.400;2023-10-19T09:08:56;95049.00;;;23.61;35.48
22651;BME280;11492;42.646;23.400;2023-10-19T09:11:23;95049.59;;;23.77;35.07
22651;BME280;11492;42.646;23.400;2023-10-19T09:13:51;95037.66;;;24.30;34.43
22651;BME280;11492;42.646;23.400;2023-10-19T09:16:21;95026.59;;;24.38;34.17
22651;BME280;11492;42.646;23.400;2023-10-19T09:18:48;95021.31;;;24.68;34.05
22651;BME280;11492;42.646;23.400;2023-10-19T09:21:20;95022.66;;;24.65;33.81
22651;BME280;11492;42.646;23.400;2023-10-19T09:23:56;95030.03;;;24.39;34.46
22651;BME280;11492;42.646;23.400;2023-10-19T09:26:23;95018.91;;;24.37;34.75
22651;BME280;11492;42.646;23.400;2023-10-19T09:28:52;95016.56;;;25.24;34.06
22651;BME280;11492;42.646;23.400;2023-10-19T09:31:20;95006.06;;;25.91;33.18
22651;BME280;11492;42.646;23.400;2023-10-19T09:33:48;94999.53;;;26.31;31.71
22651;BME280;11492;42.646;23.400;2023-10-19T09:36:18;94968.53;;;25.79;32.24
22651;BME280;11492;42.646;23.400;2023-10-19T09:38:48;94987.75;;;25.17;33.10
22651;BME280;11492;42.646;23.400;2023-10-19T09:41:23;94975.63;;;24.33;34.97
22651;BME280;11492;42.646;23.400;2023-10-19T09:43:58;94975.63;;;23.53;36.67
22651;BME280;11492;42.646;23.400;2023-10-19T09:46:32;94986.06;;;22.88;37.65
22651;BME280;11492;42.646;23.400;2023-10-19T09:48:59;94974.88;;;22.14;38.78
22651;BME280;11492;42.646;23.400;2023-10-19T09:51:25;94978.25;;;21.42;40.17
22651;BME280;11492;42.646;23.400;2023-10-19T09:53:56;94983.75;;;20.82;42.22
22651;BME280;11492;42.646;23.400;2023-10-19T09:56:35;94970.47;;;20.56;42.20
22651;BME280;11492;42.646;23.400;2023-10-19T09:59:06;94945.66;;;20.31;43.26
22651;BME280;11492;42.646;23.400;2023-10-19T10:02:03;94963.47;;;20.61;43.03
22651;BME280;11492;42.646;23.400;2023-10-19T10:04:33;94965.16;;;20.51;42.64
22651;BME280;11492;42.646;23.400;2023-10-19T10:07:00;94967.56;;;20.90;42.59
22651;BME280;11492;42.646;23.400;2023-10-19T10:09:26;94938.38;;;21.45;41.05
22651;BME280;11492;42.646;23.400;2023-10-19T10:11:52;94934.63;;;22.45;39.51
22651;BME280;11492;42.646;23.400;2023-10-19T10:14:36;94944.94;;;22.51;39.03
22651;BME280;11492;42.646;23.400;2023-10-19T10:17:04;94943.22;;;22.35;39.77
22651;BME280;11492;42.646;23.400;2023-10-19T10:19:35;94938.09;;;22.19;39.91
22651;BME280;11492;42.646;23.400;2023-10-19T10:22:11;94923.94;;;21.73;40.80
22651;BME280;11492;42.646;23.400;2023-10-19T10:24:43;94944.00;;;21.53;41.43
22651;BME280;11492;42.646;23.400;2023-10-19T10:27:09;94943.16;;;21.52;41.41
22651;BME280;11492;42.646;23.400;2023-10-19T10:29:57;94922.59;;;21.45;42.34
22651;BME280;11492;42.646;23.400;2023-10-19T10:32:52;94908.22;;;21.31;41.49
22651;BME280;11492;42.646;23.400;2023-10-19T10:38:10;94888.47;;;24.38;37.00
22651;BME280;11492;42.646;23.400;2023-10-19T10:40:47;94906.72;;;26.41;34.26
22651;BME280;11492;42.646;23.400;2023-10-19T10:43:13;94890.59;;;27.62;31.89
22651;BME280;11492;42.646;23.400;2023-10-19T10:45:40;94899.72;;;28.65;30.74
22651;BME280;11492;42.646;23.400;2023-10-19T10:48:17;94881.88;;;29.90;29.05
22651;BME280;11492;42.646;23.400;2023-10-19T10:50:46;94873.47;;;30.53;28.14
22651;BME280;11492;42.646;23.400;2023-10-19T10:53:13;94845.47;;;30.93;26.83
22651;BME280;11492;42.646;23.400;2023-10-19T10:55:39;94845.97;;;31.63;26.66
22651;BME280;11492;42.646;23.400;2023-10-19T10:58:05;94862.09;;;32.22;25.66
22651;BME280;11492;42.646;23.400;2023-10-19T11:00:31;94835.81;;;32.15;26.05
22651;BME280;11492;42.646;23.400;2023-10-19T11:05:26;94849.75;;;32.87;25.08
22651;BME280;11492;42.646;23.400;2023-10-19T11:08:09;94839.59;;;33.18;25.04
22651;BME280;11492;42.646;23.400;2023-10-19T11:10:38;94836.78;;;33.14;24.87
22651;BME280;11492;42.646;23.400;2023-10-19T11:13:08;94833.25;;;34.08;23.91
22651;BME280;11492;42.646;23.400;2023-10-19T11:15:36;94823.59;;;33.66;24.21
22651;BME280;11492;42.646;23.400;2023-10-19T11:18:08;94811.41;;;33.04;24.61
22651;BME280;11492;42.646;23.400;2023-10-19T11:20:34;94814.81;;;33.29;23.97
22651;BME280;11492;42.646;23.400;2023-10-19T11:23:01;94805.88;;;32.47;24.67
22651;BME280;11492;42.646;23.400;2023-10-19T11:25:29;94805.81;;;33.25;24.64
22651;BME280;11492;42.646;23.400;2023-10-19T11:27:57;94782.38;;;34.31;23.33
22651;BME280;11492;42.646;23.400;2023-10-19T11:30:29;94799.00;;;34.05;23.77
22651;BME280;11492;42.646;23.400;2023-10-19T11:32:56;94798.50;;;34.31;22.85
22651;BME280;11492;42.646;23.400;2023-10-19T11:35:29;94781.97;;;35.05;22.95
22651;BME280;11492;42.646;23.400;2023-10-19T11:37:57;94781.28;;;35.78;22.13
22651;BME280;11492;42.646;23.400;2023-10-19T11:40:27;94773.94;;;36.14;21.88
22651;BME280;11492;42.646;23.400;2023-10-19T11:42:55;94781.53;;;36.51;21.34
22651;BME280;11492;42.646;23.400;2023-10-19T11:45:26;94782.00;;;37.25;21.01
22651;BME280;11492;42.646;23.400;2023-10-19T11:47:53;94764.22;;;37.55;20.67
22651;BME280;11492;42.646;23.400;2023-10-19T11:50:20;94766.25;;;37.58;20.56
22651;BME280;11492;42.646;23.400;2023-10-19T11:52:46;94764.50;;;37.19;20.39
22651;BME280;11492;42.646;23.400;2023-10-19T11:55:12;94746.59;;;37.42;20.74
22651;BME280;11492;42.646;23.400;2023-10-19T11:57:44;94758.72;;;37.67;20.42
22651;BME280;11492;42.646;23.400;2023-10-19T12:00:11;94753.03;;;37.22;20.64
22651;BME280;11492;42.646;23.400;2023-10-19T12:02:48;94752.16;;;37.49;20.83
22651;BME280;11492;42.646;23.400;2023-10-19T12:05:16;94745.59;;;37.65;20.85
22651;BME280;11492;42.646;23.400;2023-10-19T12:07:42;94748.31;;;38.18;20.42
22651;BME280;11492;42.646;23.400;2023-10-19T12:10:11;94759.50;;;38.94;19.44
22651;BME280;11492;42.646;23.400;2023-10-19T12:12:37;94756.19;;;38.44;20.09
22651;BME280;11492;42.646;23.400;2023-10-19T12:15:05;94759.78;;;37.96;20.21
22651;BME280;11492;42.646;23.400;2023-10-19T12:17:34;94741.50;;;38.42;20.21
22651;BME280;11492;42.646;23.400;2023-10-19T12:20:00;94756.22;;;39.04;19.68
22651;BME280;11492;42.646;23.400;2023-10-19T12:22:27;94749.91;;;38.56;19.25
22651;BME280;11492;42.646;23.400;2023-10-19T12:25:04;94735.66;;;36.20;21.24
22651;BME280;11492;42.646;23.400;2023-10-19T12:27:30;94734.91;;;36.35;21.82
22651;BME280;11492;42.646;23.400;2023-10-19T12:29:57;94726.03;;;36.62;21.25
22651;BME280;11492;42.646;23.400;2023-10-19T12:32:24;94726.81;;;37.68;20.58
22651;BME280;11492;42.646;23.400;2023-10-19T12:34:52;94732.66;;;38.45;20.06
22651;BME280;11492;42.646;23.400;2023-10-19T12:37:23;94711.50;;;38.91;19.81
22651;BME280;11492;42.646;23.400;2023-10-19T12:39:52;94725.91;;;39.39;19.38
22651;BME280;11492;42.646;23.400;2023-10-19T12:42:21;94717.97;;;39.78;19.08
22651;BME280;11492;42.646;23.400;2023-10-19T12:44:48;94702.91;;;39.77;18.94
22651;BME280;11492;42.646;23.400;2023-10-19T12:47:15;94696.19;;;39.97;18.86
22651;BME280;11492;42.646;23.400;2023-10-19T12:49:42;94707.41;;;39.96;18.92
22651;BME280;11492;42.646;23.400;2023-10-19T12:52:12;94699.84;;;40.11;18.81
22651;BME280;11492;42.646;23.400;2023-10-19T12:54:38;94708.03;;;40.47;18.25
22651;BME280;11492;42.646;23.400;2023-10-19T12:57:06;94707.81;;;40.62;18.93
22651;BME280;11492;42.646;23.400;2023-10-19T12:59:34;94682.91;;;39.85;17.58
22651;BME280;11492;42.646;23.400;2023-10-19T13:02:03;94701.94;;;38.71;19.15
22651;BME280;11492;42.646;23.400;2023-10-19T13:04:31;94694.59;;;38.31;20.05
22651;BME280;11492;42.646;23.400;2023-10-19T13:06:58;94682.16;;;36.76;20.61
22651;BME280;11492;42.646;23.400;2023-10-19T13:09:27;94687.88;;;35.28;22.95
22651;BME280;11492;42.646;23.400;2023-10-19T13:12:02;94688.75;;;33.86;23.56
22651;BME280;11492;42.646;23.400;2023-10-19T13:14:37;94695.47;;;31.21;25.67
22651;BME280;11492;42.646;23.400;2023-10-19T13:17:02;94693.16;;;30.13;27.00